createdAt,value
2022-09-22T00:00:07.912Z,12.77
2022-09-22T00:01:08.055Z,12.83
2022-09-22T00:02:07.990Z,12.78
2022-09-22T00:03:07.908Z,12.82
2022-09-22T00:04:07.926Z,12.79
2022-09-22T00:05:07.909Z,12.82
2022-09-22T00:06:07.910Z,12.82
2022-09-22T00:07:07.917Z,12.78
2022-09-22T00:08:07.941Z,12.74
2022-09-22T00:09:07.914Z,12.70
2022-09-22T00:10:07.908Z,12.67
2022-09-22T00:11:07.913Z,12.64
2022-09-22T00:12:07.915Z,12.64
2022-09-22T00:13:07.910Z,12.68
2022-09-22T00:14:08.029Z,12.71
2022-09-22T00:15:07.899Z,12.72
2022-09-22T00:16:07.934Z,12.74
2022-09-22T00:17:07.910Z,12.71
2022-09-22T00:18:07.912Z,12.60
2022-09-22T00:19:07.914Z,12.67
2022-09-22T00:20:07.933Z,12.60
2022-09-22T00:21:07.898Z,12.65
2022-09-22T00:22:07.940Z,12.70
2022-09-22T00:23:07.910Z,12.68
2022-09-22T00:24:08.063Z,12.62
2022-09-22T00:25:07.909Z,12.57
2022-09-22T00:26:07.895Z,12.56
2022-09-22T00:27:07.911Z,12.68
2022-09-22T00:28:07.918Z,12.68
2022-09-22T00:29:08.067Z,12.59
2022-09-22T00:30:07.924Z,12.56
2022-09-22T00:31:08.019Z,12.64
2022-09-22T00:32:08.017Z,12.57
2022-09-22T00:33:07.914Z,12.62
2022-09-22T00:34:07.924Z,12.56
2022-09-22T00:35:07.893Z,12.59
2022-09-22T00:36:07.908Z,12.56
2022-09-22T00:37:07.897Z,12.60
2022-09-22T00:38:07.900Z,12.54
2022-09-22T00:39:07.991Z,12.57
2022-09-22T00:40:07.930Z,12.47
2022-09-22T00:41:07.931Z,12.47
2022-09-22T00:42:07.932Z,12.52
2022-09-22T00:43:07.894Z,12.46
2022-09-22T00:44:07.957Z,12.42
2022-09-22T00:45:07.902Z,12.42
2022-09-22T00:46:07.907Z,12.46
2022-09-22T00:47:07.913Z,12.42
2022-09-22T00:48:07.886Z,12.37
2022-09-22T00:49:07.908Z,12.35
2022-09-22T00:50:07.907Z,12.34
2022-09-22T00:51:07.898Z,12.34
2022-09-22T00:52:07.887Z,12.32
2022-09-22T00:53:07.908Z,12.32
2022-09-22T00:54:07.898Z,12.29
2022-09-22T00:55:07.899Z,12.21
2022-09-22T00:56:07.916Z,12.24
2022-09-22T00:57:07.891Z,12.19
2022-09-22T00:58:07.889Z,12.20
2022-09-22T00:59:07.946Z,12.17
2022-09-22T01:00:07.895Z,12.16
2022-09-22T01:01:07.965Z,12.20
2022-09-22T01:02:07.932Z,12.16
2022-09-22T01:03:07.891Z,12.13
2022-09-22T01:04:07.899Z,12.09
2022-09-22T01:05:07.892Z,12.13
2022-09-22T01:06:07.883Z,12.12
2022-09-22T01:07:07.882Z,12.14
2022-09-22T01:08:07.891Z,12.17
2022-09-22T01:09:07.883Z,12.16
2022-09-22T01:10:07.891Z,11.99
2022-09-22T01:11:07.887Z,12.01
2022-09-22T01:12:07.904Z,12.05
2022-09-22T01:13:07.885Z,12.10
2022-09-22T01:14:07.974Z,12.07
2022-09-22T01:15:07.894Z,12.02
2022-09-22T01:16:07.903Z,12.09
2022-09-22T01:17:07.914Z,11.98
2022-09-22T01:18:07.883Z,12.07
2022-09-22T01:19:07.890Z,11.98
2022-09-22T01:20:07.902Z,11.94
2022-09-22T01:21:07.872Z,12.02
2022-09-22T01:22:07.881Z,12.01
2022-09-22T01:23:07.893Z,12.02
2022-09-22T01:24:07.900Z,11.99
2022-09-22T01:25:07.871Z,12.01
2022-09-22T01:26:07.890Z,11.95
2022-09-22T01:27:07.878Z,11.94
2022-09-22T01:28:07.872Z,11.85
2022-09-22T01:29:07.915Z,11.86
2022-09-22T01:30:07.905Z,11.88
2022-09-22T01:31:07.899Z,11.85
2022-09-22T01:32:07.877Z,11.86
2022-09-22T01:33:07.899Z,11.91
2022-09-22T01:34:07.890Z,11.86
2022-09-22T01:35:07.872Z,11.83
2022-09-22T01:36:07.884Z,11.82
2022-09-22T01:38:51.580Z,11.80
2022-09-22T01:39:39.908Z,11.83
2022-09-22T01:40:39.999Z,11.72
2022-09-22T01:41:39.932Z,11.73
2022-09-22T01:42:39.935Z,11.70
2022-09-22T01:43:39.921Z,11.67
2022-09-22T01:44:39.922Z,11.75
2022-09-22T01:45:39.908Z,11.70
2022-09-22T01:46:39.980Z,11.70
2022-09-22T01:47:39.932Z,11.65
2022-09-22T01:48:39.937Z,11.64
2022-09-22T01:49:39.919Z,11.55
2022-09-22T01:50:39.912Z,11.49
2022-09-22T01:51:39.918Z,11.60
2022-09-22T01:52:39.934Z,11.47
2022-09-22T01:53:39.942Z,11.47
2022-09-22T01:54:39.922Z,11.47
2022-09-22T01:55:39.899Z,11.54
2022-09-22T01:56:39.925Z,11.44
2022-09-22T01:57:39.916Z,11.47
2022-09-22T01:58:39.912Z,11.43
2022-09-22T01:59:39.923Z,11.46
2022-09-22T02:00:39.911Z,11.51
2022-09-22T02:01:40.113Z,11.47
2022-09-22T02:02:40.018Z,11.49
2022-09-22T02:03:39.906Z,11.43
2022-09-22T02:04:39.906Z,11.36
2022-09-22T02:05:39.925Z,11.42
2022-09-22T02:06:39.902Z,11.39
2022-09-22T02:07:39.918Z,11.42
2022-09-22T02:08:39.911Z,11.39
2022-09-22T02:09:39.916Z,11.37
2022-09-22T02:10:39.893Z,11.39
2022-09-22T02:11:39.913Z,11.36
2022-09-22T02:12:39.902Z,11.40
2022-09-22T02:13:39.902Z,11.37
2022-09-22T02:14:39.923Z,11.36
2022-09-22T02:15:39.921Z,11.35
2022-09-22T02:16:39.891Z,11.36
2022-09-22T02:17:39.892Z,11.39
2022-09-22T02:18:39.906Z,11.36
2022-09-22T02:19:39.892Z,11.32
2022-09-22T02:20:39.897Z,11.33
2022-09-22T02:21:39.903Z,11.37
2022-09-22T02:22:39.899Z,11.37
2022-09-22T02:23:39.910Z,11.25
2022-09-22T02:24:39.897Z,11.37
2022-09-22T02:25:39.881Z,11.37
2022-09-22T02:26:39.890Z,11.37
2022-09-22T02:27:39.879Z,11.35
2022-09-22T02:28:39.903Z,11.25
2022-09-22T02:29:39.895Z,11.29
2022-09-22T02:30:39.902Z,11.29
2022-09-22T02:31:39.941Z,11.36
2022-09-22T02:32:39.883Z,11.25
2022-09-22T02:33:39.872Z,11.25
2022-09-22T02:34:39.880Z,11.39
2022-09-22T02:35:39.897Z,11.36
2022-09-22T02:36:39.907Z,11.24
2022-09-22T02:37:39.893Z,11.28
2022-09-22T02:38:39.890Z,11.32
2022-09-22T02:39:39.880Z,11.29
2022-09-22T02:40:39.931Z,11.35
2022-09-22T02:41:39.893Z,11.25
2022-09-22T02:42:39.876Z,11.28
2022-09-22T02:43:39.883Z,11.35
2022-09-22T02:44:39.875Z,11.39
2022-09-22T02:45:39.863Z,11.33
2022-09-22T02:46:39.956Z,11.35
2022-09-22T02:47:39.885Z,11.35
2022-09-22T02:48:39.879Z,11.35
2022-09-22T02:49:39.857Z,11.29
2022-09-22T02:50:39.870Z,11.36
2022-09-22T02:51:39.874Z,11.35
2022-09-22T02:52:39.869Z,11.32
2022-09-22T02:53:39.874Z,11.39
2022-09-22T02:54:39.870Z,11.40
2022-09-22T02:55:39.862Z,11.29
2022-09-22T02:56:39.865Z,11.25
2022-09-22T02:57:39.871Z,11.29
2022-09-22T02:58:39.882Z,11.24
2022-09-22T02:59:39.860Z,11.22
2022-09-22T03:00:39.857Z,11.25
2022-09-22T03:01:39.877Z,11.17
2022-09-22T03:02:39.883Z,11.19
2022-09-22T03:03:39.848Z,11.17
2022-09-22T03:04:39.876Z,11.24
2022-09-22T03:05:39.864Z,11.25
2022-09-22T03:06:39.862Z,11.22
2022-09-22T03:07:39.849Z,11.18
2022-09-22T03:08:39.887Z,11.28
2022-09-22T03:09:39.864Z,11.17
2022-09-22T03:10:39.870Z,11.24
2022-09-22T03:11:39.847Z,11.27
2022-09-22T03:12:47.946Z,11.18
2022-09-22T03:13:39.845Z,11.22
2022-09-22T03:14:39.852Z,11.24
2022-09-22T03:15:39.875Z,11.25
2022-09-22T03:16:39.834Z,11.14
2022-09-22T03:17:39.845Z,11.18
2022-09-22T03:18:39.842Z,11.18
2022-09-22T03:19:39.898Z,11.22
2022-09-22T03:20:39.845Z,11.14
2022-09-22T03:21:39.836Z,11.19
2022-09-22T03:22:39.841Z,11.18
2022-09-22T03:23:39.830Z,11.10
2022-09-22T03:24:39.857Z,11.10
2022-09-22T03:25:39.830Z,11.19
2022-09-22T03:26:39.848Z,11.11
2022-09-22T03:27:39.847Z,11.11
2022-09-22T03:28:39.823Z,11.18
2022-09-22T03:29:39.848Z,11.18
2022-09-22T03:30:39.866Z,11.09
2022-09-22T03:31:39.821Z,11.11
2022-09-22T03:32:39.843Z,11.14
2022-09-22T03:33:39.818Z,11.11
2022-09-22T03:34:39.824Z,11.17
2022-09-22T03:35:39.851Z,11.14
2022-09-22T03:36:39.836Z,11.06
2022-09-22T03:37:39.843Z,11.09
2022-09-22T03:38:39.829Z,11.14
2022-09-22T03:39:39.823Z,11.14
2022-09-22T03:40:39.945Z,11.15
2022-09-22T03:41:39.854Z,11.15
2022-09-22T03:42:39.808Z,11.00
2022-09-22T03:43:39.826Z,11.07
2022-09-22T03:44:39.830Z,11.17
2022-09-22T03:45:39.878Z,11.19
2022-09-22T03:46:39.815Z,11.11
2022-09-22T03:47:39.856Z,11.11
2022-09-22T03:48:44.796Z,11.18
2022-09-22T03:49:39.809Z,11.11
2022-09-22T03:50:39.804Z,11.09
2022-09-22T03:51:39.804Z,11.19
2022-09-22T03:52:39.814Z,11.15
2022-09-22T03:53:39.824Z,11.14
2022-09-22T03:54:39.824Z,11.09
2022-09-22T03:55:39.827Z,11.07
2022-09-22T03:56:39.814Z,11.07
2022-09-22T03:57:39.801Z,11.17
2022-09-22T03:58:39.818Z,11.07
2022-09-22T03:59:39.796Z,11.21
2022-09-22T04:00:39.804Z,11.03
2022-09-22T04:01:39.847Z,11.14
2022-09-22T04:02:39.865Z,11.15
2022-09-22T04:03:39.830Z,11.04
2022-09-22T04:04:39.823Z,11.15
2022-09-22T04:05:39.793Z,11.04
2022-09-22T04:06:39.820Z,11.17
2022-09-22T04:07:39.794Z,11.14
2022-09-22T04:08:39.790Z,11.04
2022-09-22T04:09:39.804Z,11.06
2022-09-22T04:10:39.799Z,11.10
2022-09-22T04:11:39.791Z,11.06
2022-09-22T04:12:39.793Z,11.06
2022-09-22T04:13:45.439Z,11.09
2022-09-22T04:14:39.783Z,10.92
2022-09-22T04:15:39.797Z,10.92
2022-09-22T04:16:39.803Z,10.94
2022-09-22T04:17:39.800Z,10.89
2022-09-22T04:18:39.786Z,10.99
2022-09-22T04:19:39.791Z,10.91
2022-09-22T04:20:42.619Z,10.96
2022-09-22T04:21:39.771Z,10.96
2022-09-22T04:22:39.772Z,10.92
2022-09-22T04:23:39.767Z,10.86
2022-09-22T04:24:39.785Z,10.86
2022-09-22T04:25:39.780Z,10.84
2022-09-22T04:26:47.706Z,10.97
2022-09-22T04:27:39.767Z,10.96
2022-09-22T04:28:39.779Z,10.86
2022-09-22T04:29:39.763Z,10.78
2022-09-22T04:30:39.839Z,10.76
2022-09-22T04:31:39.789Z,10.85
2022-09-22T04:32:47.166Z,10.78
2022-09-22T04:33:39.764Z,10.73
2022-09-22T04:34:39.763Z,10.74
2022-09-22T04:35:39.761Z,10.82
2022-09-22T04:36:39.762Z,10.78
2022-09-22T04:37:39.768Z,10.79
2022-09-22T04:38:39.779Z,10.85
2022-09-22T04:39:39.766Z,10.76
2022-09-22T04:40:39.829Z,10.82
2022-09-22T04:41:39.782Z,10.70
2022-09-22T04:42:39.760Z,10.67
2022-09-22T04:43:39.763Z,10.70
2022-09-22T04:44:39.751Z,10.64
2022-09-22T04:45:40.025Z,10.68
2022-09-22T04:46:39.764Z,10.70
2022-09-22T04:47:39.743Z,10.64
2022-09-22T04:48:39.794Z,10.71
2022-09-22T04:49:39.742Z,10.71
2022-09-22T04:50:41.492Z,10.70
2022-09-22T04:51:39.746Z,10.68
2022-09-22T04:52:39.755Z,10.61
2022-09-22T04:53:39.742Z,10.55
2022-09-22T04:54:39.759Z,10.67
2022-09-22T04:55:39.751Z,10.59
2022-09-22T04:56:39.736Z,10.61
2022-09-22T04:57:39.749Z,10.59
2022-09-22T04:58:39.740Z,10.59
2022-09-22T04:59:39.757Z,10.63
2022-09-22T05:00:39.748Z,10.63
2022-09-22T05:01:39.861Z,10.64
2022-09-22T05:02:39.730Z,10.59
2022-09-22T05:03:39.813Z,10.60
2022-09-22T05:04:39.737Z,10.63
2022-09-22T05:05:39.754Z,10.60
2022-09-22T05:06:39.730Z,10.64
2022-09-22T05:07:39.743Z,10.60
2022-09-22T05:08:39.752Z,10.63
2022-09-22T05:09:39.730Z,10.60
2022-09-22T05:10:39.741Z,10.48
2022-09-22T05:11:39.748Z,10.51
2022-09-22T05:12:39.738Z,10.40
2022-09-22T05:13:39.736Z,10.40
2022-09-22T05:14:39.743Z,10.40
2022-09-22T05:15:39.717Z,10.38
2022-09-22T05:16:39.764Z,10.40
2022-09-22T05:17:39.712Z,10.48
2022-09-22T05:18:39.721Z,10.38
2022-09-22T05:19:39.729Z,10.33
2022-09-22T05:20:39.712Z,10.47
2022-09-22T05:21:39.707Z,10.36
2022-09-22T05:22:40.124Z,10.42
2022-09-22T05:23:39.760Z,10.41
2022-09-22T05:24:39.720Z,10.33
2022-09-22T05:25:39.744Z,10.26
2022-09-22T05:26:39.714Z,10.30
2022-09-22T05:27:39.735Z,10.23
2022-09-22T05:28:39.726Z,10.34
2022-09-22T05:29:39.729Z,10.33
2022-09-22T05:30:39.715Z,10.26
2022-09-22T05:31:39.788Z,10.20
2022-09-22T05:32:39.696Z,10.27
2022-09-22T05:33:39.701Z,10.18
2022-09-22T05:34:39.723Z,10.12
2022-09-22T05:35:39.705Z,10.07
2022-09-22T05:36:39.706Z,10.01
2022-09-22T05:37:39.699Z,10.01
2022-09-22T05:38:39.702Z,9.99
2022-09-22T05:39:39.696Z,9.99
2022-09-22T05:40:39.737Z,10.04
2022-09-22T05:41:39.708Z,10.02
2022-09-22T05:42:39.701Z,9.99
2022-09-22T05:43:39.709Z,9.99
2022-09-22T05:44:39.707Z,9.99
2022-09-22T05:45:39.756Z,10.07
2022-09-22T05:46:39.687Z,10.02
2022-09-22T05:47:39.689Z,10.04
2022-09-22T05:48:39.702Z,10.14
2022-09-22T05:49:39.711Z,10.18
2022-09-22T05:50:39.704Z,10.23
2022-09-22T05:51:39.696Z,10.33
2022-09-22T05:52:39.716Z,10.38
2022-09-22T05:53:39.696Z,10.29
2022-09-22T05:54:39.671Z,10.44
2022-09-22T05:55:39.675Z,10.44
2022-09-22T05:56:39.722Z,10.47
2022-09-22T05:57:39.669Z,10.52
2022-09-22T05:58:39.702Z,10.63
2022-09-22T05:59:39.677Z,10.79
2022-09-22T06:00:39.719Z,10.74
2022-09-22T06:01:39.667Z,10.86
2022-09-22T06:02:39.700Z,11.02
2022-09-22T06:03:39.663Z,11.02
2022-09-22T06:04:39.691Z,11.10
2022-09-22T06:05:39.839Z,11.17
2022-09-22T06:06:39.672Z,11.15
2022-09-22T06:07:39.661Z,11.21
2022-09-22T06:08:39.665Z,11.33
2022-09-22T06:09:39.672Z,11.39
2022-09-22T06:10:39.671Z,11.54
2022-09-22T06:11:39.656Z,11.60
2022-09-22T06:12:39.651Z,11.65
2022-09-22T06:13:39.661Z,11.79
2022-09-22T06:14:39.651Z,11.83
2022-09-22T06:15:39.689Z,11.98
2022-09-22T06:16:39.694Z,12.09
2022-09-22T06:17:39.659Z,12.16
2022-09-22T06:18:39.671Z,12.27
2022-09-22T06:19:39.669Z,12.37
2022-09-22T06:20:39.658Z,12.42
2022-09-22T06:21:39.661Z,12.53
2022-09-22T06:22:39.656Z,12.64
2022-09-22T06:23:42.855Z,12.74
2022-09-22T06:24:39.639Z,12.90
2022-09-22T06:25:39.653Z,13.10
2022-09-22T06:26:39.656Z,13.36
2022-09-22T06:27:39.679Z,13.48
2022-09-22T06:28:39.650Z,13.69
2022-09-22T06:29:39.637Z,13.81
2022-09-22T06:30:39.650Z,14.06
2022-09-22T06:31:39.685Z,14.28
2022-09-22T06:32:39.658Z,14.58
2022-09-22T06:33:39.681Z,14.81
2022-09-22T06:34:39.727Z,15.10
2022-09-22T06:35:39.658Z,15.35
2022-09-22T06:36:39.649Z,15.53
2022-09-22T06:37:39.662Z,15.76
2022-09-22T06:38:39.687Z,16.05
2022-09-22T06:39:39.649Z,16.23
2022-09-22T06:40:39.673Z,16.43
2022-09-22T06:41:39.652Z,16.56
2022-09-22T06:42:39.651Z,16.71
2022-09-22T06:43:39.670Z,16.76
2022-09-22T06:44:39.825Z,16.88
2022-09-22T06:45:39.734Z,17.00
2022-09-22T06:46:39.657Z,17.06
2022-09-22T06:47:39.660Z,17.01
2022-09-22T06:48:39.647Z,17.00
2022-09-22T06:49:39.656Z,16.82
2022-09-22T06:50:39.647Z,16.83
2022-09-22T06:51:39.665Z,16.67
2022-09-22T06:52:39.656Z,16.42
2022-09-22T06:53:39.667Z,16.20
2022-09-22T06:54:39.679Z,16.02
2022-09-22T06:55:39.665Z,15.89
2022-09-22T06:56:39.658Z,15.75
2022-09-22T06:57:39.648Z,15.65
2022-09-22T06:59:05.506Z,15.53
2022-09-22T06:59:39.650Z,15.53
2022-09-22T07:00:39.735Z,15.31
2022-09-22T07:01:39.748Z,15.41
2022-09-22T07:02:39.649Z,15.41
2022-09-22T07:03:39.661Z,15.46
2022-09-22T07:04:39.661Z,15.41
2022-09-22T07:05:39.676Z,15.46
2022-09-22T07:06:39.658Z,15.50
2022-09-22T07:07:39.671Z,15.93
2022-09-22T07:08:39.648Z,16.20
2022-09-22T07:09:39.665Z,16.64
2022-09-22T07:10:39.712Z,16.98
2022-09-22T07:11:40.481Z,17.43
2022-09-22T07:12:39.659Z,17.75
2022-09-22T07:13:39.659Z,18.05
2022-09-22T07:14:39.668Z,18.51
2022-09-22T07:15:39.678Z,18.87
2022-09-22T07:16:39.703Z,19.26
2022-09-22T07:17:39.666Z,19.66
2022-09-22T07:18:39.665Z,19.99
2022-09-22T07:19:39.675Z,20.16
2022-09-22T07:20:39.683Z,20.36
2022-09-22T07:21:39.685Z,20.50
2022-09-22T07:22:39.697Z,20.72
2022-09-22T07:23:39.677Z,20.89
2022-09-22T07:24:39.687Z,21.01
2022-09-22T07:25:39.683Z,21.32
2022-09-22T07:26:39.711Z,21.37
2022-09-22T07:27:39.680Z,21.50
2022-09-22T07:28:39.687Z,21.59
2022-09-22T07:29:39.676Z,21.75
2022-09-22T07:30:39.684Z,21.94
2022-09-22T07:31:39.741Z,22.09
2022-09-22T07:32:39.718Z,22.14
2022-09-22T07:33:39.696Z,22.28
2022-09-22T07:34:39.701Z,22.43
2022-09-22T07:35:39.707Z,22.49
2022-09-22T07:36:39.706Z,22.58
2022-09-22T07:37:39.721Z,22.55
2022-09-22T07:38:39.817Z,22.57
2022-09-22T07:39:39.713Z,22.73
2022-09-22T07:40:39.788Z,22.83
2022-09-22T07:41:39.706Z,22.85
2022-09-22T07:42:39.741Z,22.94
2022-09-22T07:43:39.738Z,22.95
2022-09-22T07:44:43.713Z,22.92
2022-09-22T07:45:39.732Z,22.92
2022-09-22T07:46:39.856Z,22.98
2022-09-22T07:47:39.748Z,23.05
2022-09-22T07:48:39.750Z,23.31
2022-09-22T07:49:39.767Z,23.40
2022-09-22T07:50:39.750Z,23.51
2022-09-22T07:51:39.743Z,23.46
2022-09-22T07:52:39.757Z,23.35
2022-09-22T07:53:39.758Z,23.05
2022-09-22T07:54:39.793Z,22.95
2022-09-22T07:55:39.798Z,22.98
2022-09-22T07:56:39.764Z,22.90
2022-09-22T07:57:39.797Z,22.52
2022-09-22T07:58:39.792Z,22.57
2022-09-22T07:59:39.803Z,22.33
2022-09-22T08:00:39.846Z,22.20
2022-09-22T08:01:39.868Z,21.67
2022-09-22T08:02:39.814Z,21.32
2022-09-22T08:03:39.804Z,21.32
2022-09-22T08:04:39.842Z,21.43
2022-09-22T08:05:39.814Z,21.52
2022-09-22T08:06:39.880Z,21.92
2022-09-22T08:07:39.818Z,22.22
2022-09-22T08:08:39.831Z,22.46
2022-09-22T08:09:39.822Z,22.36
2022-09-22T08:10:39.830Z,22.21
2022-09-22T08:11:39.852Z,22.30
2022-09-22T08:12:39.846Z,22.36
2022-09-22T08:13:39.852Z,22.28
2022-09-22T08:14:39.843Z,22.35
2022-09-22T08:15:39.854Z,22.43
2022-09-22T08:16:39.875Z,22.61
2022-09-22T08:17:39.880Z,22.36
2022-09-22T08:18:39.884Z,22.28
2022-09-22T08:19:40.705Z,22.37
2022-09-22T08:20:44.695Z,22.14
2022-09-22T08:21:47.964Z,21.84
2022-09-22T08:22:39.904Z,21.79
2022-09-22T08:23:39.893Z,21.86
2022-09-22T08:24:39.900Z,22.07
2022-09-22T08:25:39.907Z,22.33
2022-09-22T08:26:41.246Z,22.54
2022-09-22T08:27:39.931Z,22.57
2022-09-22T08:28:39.948Z,22.37
2022-09-22T08:29:39.955Z,22.21
2022-09-22T08:30:39.929Z,22.20
2022-09-22T08:31:39.973Z,22.30
2022-09-22T08:32:39.941Z,22.09
2022-09-22T08:33:39.940Z,21.92
2022-09-22T08:34:39.959Z,21.77
2022-09-22T08:35:39.976Z,21.52
2022-09-22T08:36:39.957Z,21.29
2022-09-22T08:37:39.973Z,20.95
2022-09-22T08:38:39.966Z,20.64
2022-09-22T08:39:39.986Z,20.36
2022-09-22T08:40:40.033Z,20.13
2022-09-22T08:41:39.987Z,19.94
2022-09-22T08:42:39.991Z,20.11
2022-09-22T08:43:40.008Z,20.48
2022-09-22T08:44:40.026Z,20.57
2022-09-22T08:45:40.013Z,20.23
2022-09-22T08:46:40.096Z,20.26
2022-09-22T08:47:40.026Z,20.61
2022-09-22T08:48:40.037Z,20.73
2022-09-22T08:49:40.050Z,20.57
2022-09-22T08:50:40.046Z,20.57
2022-09-22T08:51:40.035Z,20.41
2022-09-22T08:52:40.042Z,20.58
2022-09-22T08:53:40.055Z,20.77
2022-09-22T08:54:40.066Z,21.07
2022-09-22T08:55:40.065Z,21.25
2022-09-22T08:56:40.064Z,21.38
2022-09-22T08:57:40.078Z,21.42
2022-09-22T08:58:40.087Z,21.65
2022-09-22T08:59:40.098Z,21.67
2022-09-22T09:00:42.739Z,21.98
2022-09-22T09:01:40.157Z,21.96
2022-09-22T09:02:40.213Z,22.07
2022-09-22T09:03:40.114Z,22.17
2022-09-22T09:04:40.117Z,22.33
2022-09-22T09:05:40.115Z,22.40
2022-09-22T09:06:40.152Z,22.28
2022-09-22T09:07:40.134Z,22.22
2022-09-22T09:08:40.139Z,22.14
2022-09-22T09:09:40.138Z,22.22
2022-09-22T09:10:40.143Z,22.27
2022-09-22T09:11:40.180Z,22.39
2022-09-22T09:12:40.170Z,22.42
2022-09-22T09:13:40.170Z,22.52
2022-09-22T09:14:40.182Z,22.52
2022-09-22T09:15:40.229Z,22.54
2022-09-22T09:16:40.190Z,22.61
2022-09-22T09:17:40.218Z,22.51
2022-09-22T09:18:40.200Z,22.64
2022-09-22T09:19:40.208Z,22.73
2022-09-22T09:20:40.208Z,22.73
2022-09-22T09:21:40.218Z,22.75
2022-09-22T09:22:43.667Z,22.82
2022-09-22T09:25:40.238Z,23.27
2022-09-22T09:26:40.256Z,23.46
2022-09-22T09:27:40.286Z,23.72
2022-09-22T09:28:40.271Z,23.88
2022-09-22T09:29:40.287Z,24.12
2022-09-22T09:30:40.308Z,24.27
2022-09-22T09:31:40.289Z,24.08
2022-09-22T09:32:40.302Z,23.93
2022-09-22T09:33:40.303Z,23.95
2022-09-22T09:34:40.311Z,23.98
2022-09-22T09:35:42.130Z,24.08
2022-09-22T09:36:40.328Z,23.97
2022-09-22T09:37:40.353Z,24.00
2022-09-22T09:38:40.354Z,24.30
2022-09-22T09:39:40.468Z,24.52
2022-09-22T09:40:40.421Z,24.65
2022-09-22T09:41:40.396Z,24.73
2022-09-22T09:42:40.385Z,24.40
2022-09-22T09:43:40.399Z,24.50
2022-09-22T09:44:40.414Z,24.61
2022-09-22T09:45:40.418Z,24.68
2022-09-22T09:46:40.458Z,24.53
2022-09-22T09:47:40.438Z,23.95
2022-09-22T09:48:40.439Z,23.61
2022-09-22T09:49:40.456Z,23.31
2022-09-22T09:50:40.485Z,23.54
2022-09-22T09:51:40.585Z,23.53
2022-09-22T09:52:40.494Z,23.53
2022-09-22T09:53:41.635Z,23.83
2022-09-22T09:54:40.520Z,24.25
2022-09-22T09:55:40.601Z,23.78
2022-09-22T09:56:40.525Z,23.42
2022-09-22T09:57:40.526Z,23.19
2022-09-22T09:58:40.576Z,23.07
2022-09-22T09:59:40.544Z,23.07
2022-09-22T10:00:40.570Z,23.50
2022-09-22T10:01:40.613Z,23.76
2022-09-22T10:02:40.556Z,24.25
2022-09-22T10:03:40.629Z,24.46
2022-09-22T10:04:40.585Z,24.52
2022-09-22T10:05:40.583Z,24.80
2022-09-22T10:06:40.598Z,25.15
2022-09-22T10:07:40.637Z,25.18
2022-09-22T10:08:40.624Z,25.54
2022-09-22T10:09:40.639Z,25.76
2022-09-22T10:10:40.635Z,25.82
2022-09-22T10:11:40.653Z,26.12
2022-09-22T10:12:40.677Z,26.52
2022-09-22T10:13:40.661Z,26.62
2022-09-22T10:14:40.685Z,26.75
2022-09-22T10:15:40.742Z,26.84
2022-09-22T10:16:40.758Z,27.18
2022-09-22T10:17:40.717Z,27.29
2022-09-22T10:18:40.883Z,27.31
2022-09-22T10:19:40.733Z,27.41
2022-09-22T10:20:40.752Z,27.47
2022-09-22T10:21:40.783Z,27.41
2022-09-22T10:22:40.795Z,26.54
2022-09-22T10:23:40.771Z,25.67
2022-09-22T10:24:40.803Z,24.83
2022-09-22T10:25:40.815Z,24.27
2022-09-22T10:26:40.808Z,24.64
2022-09-22T10:27:40.835Z,25.06
2022-09-22T10:28:40.835Z,24.93
2022-09-22T10:29:40.841Z,25.15
2022-09-22T10:30:40.895Z,25.47
2022-09-22T10:31:40.874Z,25.85
2022-09-22T10:32:40.946Z,26.10
2022-09-22T10:33:43.839Z,26.21
2022-09-22T10:34:40.961Z,26.28
2022-09-22T10:35:40.925Z,26.47
2022-09-22T10:36:40.941Z,26.62
2022-09-22T10:37:41.000Z,26.82
2022-09-22T10:38:41.001Z,27.17
2022-09-22T10:39:40.992Z,27.41
2022-09-22T10:40:41.015Z,27.85
2022-09-22T10:41:41.004Z,27.88
2022-09-22T10:42:41.035Z,27.77
2022-09-22T10:43:41.052Z,27.72
2022-09-22T10:44:45.195Z,27.75
2022-09-22T10:45:41.089Z,27.10
2022-09-22T10:46:41.104Z,25.87
2022-09-22T10:47:41.085Z,25.10
2022-09-22T10:48:41.148Z,25.45
2022-09-22T10:49:41.099Z,25.30
2022-09-22T10:50:41.133Z,25.85
2022-09-22T10:51:41.116Z,26.12
2022-09-22T10:52:41.184Z,26.45
2022-09-22T10:53:41.159Z,26.67
2022-09-22T10:54:41.168Z,26.92
2022-09-22T10:55:41.190Z,26.95
2022-09-22T10:56:41.210Z,27.22
2022-09-22T10:57:41.213Z,27.69
2022-09-22T10:58:41.221Z,27.59
2022-09-22T10:59:41.246Z,27.69
2022-09-22T11:00:41.242Z,27.81
2022-09-22T11:01:41.283Z,27.84
2022-09-22T11:02:41.283Z,27.96
2022-09-22T11:03:41.290Z,28.15
2022-09-22T11:04:41.364Z,27.93
2022-09-22T11:05:41.311Z,27.31
2022-09-22T11:06:41.311Z,27.27
2022-09-22T11:07:41.348Z,27.75
2022-09-22T11:08:41.366Z,27.97
2022-09-22T11:10:41.376Z,26.73
2022-09-22T11:11:41.383Z,26.25
2022-09-22T11:12:41.403Z,26.07
2022-09-22T11:13:41.426Z,26.37
2022-09-22T11:14:41.436Z,26.48
2022-09-22T11:15:41.542Z,26.65
2022-09-22T11:16:41.458Z,26.39
2022-09-22T11:17:45.297Z,26.25
2022-09-22T11:18:41.480Z,26.15
2022-09-22T11:19:41.499Z,26.02
2022-09-22T11:20:41.494Z,25.88
2022-09-22T11:21:41.517Z,25.95
2022-09-22T11:22:41.526Z,26.12
2022-09-22T11:23:41.522Z,26.29
2022-09-22T11:24:41.575Z,26.48
2022-09-22T11:25:41.590Z,26.51
2022-09-22T11:26:41.558Z,26.67
2022-09-22T11:27:41.601Z,26.36
2022-09-22T11:28:41.577Z,26.10
2022-09-22T11:29:41.587Z,25.62
2022-09-22T11:30:41.680Z,25.13
2022-09-22T11:31:41.645Z,25.15
2022-09-22T11:32:41.618Z,24.93
2022-09-22T11:33:41.625Z,24.53
2022-09-22T11:34:41.646Z,24.35
2022-09-22T11:35:41.654Z,23.98
2022-09-22T11:36:41.677Z,23.65
2022-09-22T11:37:41.663Z,23.35
2022-09-22T11:38:41.699Z,23.05
2022-09-22T11:39:41.683Z,22.76
2022-09-22T11:40:41.766Z,22.42
2022-09-22T11:41:41.752Z,22.18
2022-09-22T11:42:41.717Z,21.72
2022-09-22T11:43:41.736Z,21.37
2022-09-22T11:44:41.730Z,21.35
2022-09-22T11:45:41.776Z,21.21
2022-09-22T11:46:41.779Z,21.09
2022-09-22T11:47:41.744Z,20.91
2022-09-22T11:48:41.751Z,20.85
2022-09-22T11:49:41.757Z,20.69
2022-09-22T11:50:41.763Z,20.62
2022-09-22T11:51:41.811Z,20.50
2022-09-22T11:52:41.818Z,20.48
2022-09-22T11:53:41.795Z,20.41
2022-09-22T11:54:41.802Z,20.32
2022-09-22T11:55:41.799Z,20.29
2022-09-22T11:56:41.804Z,20.17
2022-09-22T11:57:41.836Z,20.11
2022-09-22T11:58:41.841Z,20.03
2022-09-22T11:59:41.834Z,19.95
2022-09-22T12:00:41.829Z,19.84
2022-09-22T12:01:41.855Z,19.83
2022-09-22T12:02:41.942Z,19.73
2022-09-22T12:03:42.049Z,19.65
2022-09-22T12:04:41.863Z,19.41
2022-09-22T12:05:41.906Z,19.44
2022-09-22T12:06:41.894Z,19.31
2022-09-22T12:07:41.893Z,19.33
2022-09-22T12:08:41.890Z,19.39
2022-09-22T12:09:41.899Z,19.31
2022-09-22T12:10:41.912Z,19.32
2022-09-22T12:11:41.912Z,19.28
2022-09-22T12:12:41.921Z,19.43
2022-09-22T12:13:41.929Z,19.59
2022-09-22T12:14:41.933Z,19.84
2022-09-22T12:15:42.023Z,19.96
2022-09-22T12:16:42.152Z,20.18
2022-09-22T12:17:41.914Z,20.32
2022-09-22T12:18:41.926Z,20.39
2022-09-22T12:19:42.029Z,20.66
2022-09-22T12:20:41.948Z,20.69
2022-09-22T12:21:42.366Z,20.85
2022-09-22T12:22:41.964Z,20.85
2022-09-22T12:23:42.791Z,20.97
2022-09-22T12:24:41.966Z,20.97
2022-09-22T12:25:48.809Z,20.94
2022-09-22T12:26:41.981Z,20.97
2022-09-22T12:27:41.965Z,20.94
2022-09-22T12:28:41.994Z,21.14
2022-09-22T12:29:41.968Z,21.21
2022-09-22T12:30:41.981Z,21.24
2022-09-22T12:31:42.042Z,21.28
2022-09-22T12:32:41.997Z,21.25
2022-09-22T12:33:42.001Z,21.17
2022-09-22T12:34:42.005Z,21.12
2022-09-22T12:35:42.055Z,21.10
2022-09-22T12:36:42.033Z,21.09
2022-09-22T12:37:42.040Z,21.12
2022-09-22T12:38:42.000Z,21.09
2022-09-22T12:39:42.017Z,20.95
2022-09-22T12:40:42.149Z,20.84
2022-09-22T12:41:42.015Z,20.82
2022-09-22T12:42:42.046Z,20.97
2022-09-22T12:43:42.029Z,20.85
2022-09-22T12:44:42.035Z,20.72
2022-09-22T12:45:42.065Z,20.70
2022-09-22T12:46:42.055Z,20.84
2022-09-22T12:47:42.073Z,20.87
2022-09-22T12:48:42.056Z,20.95
2022-09-22T12:49:42.073Z,21.06
2022-09-22T12:50:42.075Z,21.24
2022-09-22T12:51:42.103Z,21.29
2022-09-22T12:52:42.092Z,21.28
2022-09-22T12:53:43.792Z,21.46
2022-09-22T12:54:42.079Z,21.52
2022-09-22T12:55:42.081Z,21.65
2022-09-22T12:56:42.070Z,21.58